createdAt,value
2022-11-18T00:01:16.729Z,56.7
2022-11-18T00:06:35.502Z,57.1
2022-11-18T00:11:53.973Z,56
2022-11-18T00:17:12.486Z,56.3
2022-11-18T00:22:30.654Z,56.4
2022-11-18T00:27:49.145Z,57.1
2022-11-18T00:33:07.734Z,56.2
2022-11-18T00:38:26.199Z,57.8
2022-11-18T00:43:44.415Z,57.4
2022-11-18T00:49:02.966Z,57.6
2022-11-18T00:54:21.698Z,57.4
2022-11-18T00:59:40.194Z,57.2
2022-11-18T01:04:58.449Z,57
2022-11-18T01:10:16.931Z,57.9
2022-11-18T01:15:35.401Z,57.2
2022-11-18T01:20:53.689Z,57.1
2022-11-18T01:26:11.864Z,57.5
2022-11-18T01:31:30.380Z,58.1
2022-11-18T01:36:48.890Z,58.1
2022-11-18T01:42:07.091Z,57.1
2022-11-18T01:47:25.323Z,57.7
2022-11-18T01:52:52.304Z,57.8
2022-11-18T01:58:10.762Z,57.3
2022-11-18T02:03:29.254Z,57.4
2022-11-18T02:08:47.472Z,57.7
2022-11-18T02:14:05.960Z,57.3
2022-11-18T02:19:24.445Z,57.2
2022-11-18T02:24:42.686Z,56.9
2022-11-18T02:30:01.143Z,57.9
2022-11-18T02:35:19.639Z,57.7
2022-11-18T02:40:38.444Z,57.6
2022-11-18T02:45:56.637Z,57.2
2022-11-18T02:51:15.122Z,57.4
2022-11-18T02:56:33.919Z,57.9
2022-11-18T03:01:52.646Z,57.8
2022-11-18T03:07:11.489Z,57.5
2022-11-18T03:12:29.837Z,57.5
2022-11-18T03:17:48.026Z,57.1
2022-11-18T03:23:06.222Z,57.1
2022-11-18T03:28:24.469Z,57.8
2022-11-18T03:33:42.633Z,57.2
2022-11-18T03:39:01.131Z,57.7
2022-11-18T03:44:19.438Z,57.6
2022-11-18T03:49:38.180Z,57.1
2022-11-18T03:54:56.377Z,57.6
2022-11-18T04:00:14.890Z,57.8
2022-11-18T04:05:33.355Z,57.8
2022-11-18T04:10:51.832Z,57.9
2022-11-18T04:16:10.089Z,57.8
2022-11-18T04:21:28.847Z,57
2022-11-18T04:26:47.610Z,57.7
2022-11-18T04:32:06.434Z,57.1
2022-11-18T04:37:24.894Z,57.2
2022-11-18T04:42:43.652Z,56.7
2022-11-18T04:48:04.333Z,56.6
2022-11-18T04:53:22.804Z,57.2
2022-11-18T04:58:41.572Z,57.2
2022-11-18T05:04:00.204Z,57.1
2022-11-18T05:09:20.270Z,56.9
2022-11-18T05:14:38.678Z,56.9
2022-11-18T05:19:56.919Z,56.2
2022-11-18T05:25:15.377Z,56.6
2022-11-18T05:30:34.145Z,56.8
2022-11-18T05:35:56.053Z,56.3
2022-11-18T05:41:14.234Z,57.2
2022-11-18T05:46:32.432Z,56.8
2022-11-18T05:51:50.661Z,57
2022-11-18T05:57:09.418Z,56.9
2022-11-18T06:02:28.010Z,52.4
2022-11-18T06:07:47.110Z,54.5
2022-11-18T06:13:05.120Z,54.8
2022-11-18T06:18:23.316Z,55.5
2022-11-18T06:23:41.819Z,54.9
2022-11-18T06:29:00.295Z,55.8
2022-11-18T06:34:18.772Z,54.9
2022-11-18T06:39:37.466Z,55
2022-11-18T06:44:56.229Z,55.1
2022-11-18T06:50:14.836Z,55.4
2022-11-18T06:55:33.733Z,55.2
2022-11-18T07:00:52.265Z,55.1
2022-11-18T07:06:10.853Z,55.3
2022-11-18T07:11:29.565Z,55.4
2022-11-18T07:16:48.299Z,55.7
2022-11-18T07:22:06.855Z,55.6
2022-11-18T07:27:25.360Z,55.6
2022-11-18T07:32:43.823Z,55.7
2022-11-18T07:38:02.044Z,54.9
2022-11-18T07:43:20.562Z,54.9
2022-11-18T07:48:39.010Z,54.7
2022-11-18T07:53:57.524Z,55.4
2022-11-18T07:59:16.821Z,54.9
2022-11-18T08:04:35.330Z,55.5
2022-11-18T08:09:53.538Z,55.1
2022-11-18T08:15:11.829Z,55.5
2022-11-18T08:20:30.297Z,54.6
2022-11-18T08:25:48.778Z,55.7
2022-11-18T08:31:07.345Z,55.5
2022-11-18T08:36:26.093Z,54.8
2022-11-18T08:41:44.874Z,54.8
2022-11-18T08:47:03.766Z,54.5
2022-11-18T08:52:22.519Z,55.3
2022-11-18T08:57:41.284Z,54.6
2022-11-18T09:02:59.296Z,54.5
2022-11-18T09:08:17.511Z,54.6
2022-11-18T09:15:14.089Z,54.5
2022-11-18T09:20:32.748Z,54.4
2022-11-18T09:25:51.234Z,55.2
2022-11-18T09:31:09.710Z,55.3
2022-11-18T09:36:28.495Z,55.1
2022-11-18T09:41:31.337Z,55.4
2022-11-18T09:46:49.818Z,55.4
2022-11-18T09:52:08.064Z,54.9
2022-11-18T09:57:26.551Z,55.7
2022-11-18T10:02:45.308Z,55.5
2022-11-18T10:08:03.840Z,54.3
2022-11-18T10:13:22.292Z,55.6
2022-11-18T10:19:10.743Z,55.4
2022-11-18T10:24:28.969Z,54.6
2022-11-18T10:29:47.732Z,54.7
2022-11-18T10:35:06.229Z,55.5
2022-11-18T10:40:24.239Z,55.5
2022-11-18T10:45:42.704Z,54.6
2022-11-18T10:51:02.984Z,55.4
2022-11-18T10:56:21.543Z,55
2022-11-18T11:01:39.740Z,55.2
2022-11-18T11:06:58.237Z,54.4
2022-11-18T11:12:16.769Z,54.6
2022-11-18T11:17:35.506Z,55.2
2022-11-18T11:22:54.335Z,54.2
2022-11-18T11:33:32.413Z,54.2
2022-11-18T11:38:50.625Z,54.8
2022-11-18T11:44:09.516Z,55
2022-11-18T11:49:28.319Z,54.5
2022-11-18T11:54:47.085Z,54.3
2022-11-18T12:00:05.387Z,54.7
2022-11-18T12:05:23.991Z,55
2022-11-18T12:10:42.744Z,54.5
2022-11-18T12:16:01.269Z,54.9
2022-11-18T12:21:19.718Z,54.3
2022-11-18T12:26:38.509Z,55
2022-11-18T12:31:56.790Z,54.2
2022-11-18T12:37:14.986Z,54.9
2022-11-18T12:42:33.478Z,55
2022-11-18T12:47:51.859Z,55.3
2022-11-18T12:53:10.318Z,54.8
2022-11-18T12:58:29.089Z,54.6
2022-11-18T13:03:47.998Z,54.5
2022-11-18T13:09:06.474Z,54.4
2022-11-18T13:14:24.970Z,55.1
2022-11-18T13:19:43.497Z,54.6
2022-11-18T13:25:01.956Z,54.6
2022-11-18T13:30:20.762Z,55.3
2022-11-18T13:35:39.535Z,55.5
2022-11-18T13:40:58.015Z,54.7
2022-11-18T13:46:16.229Z,54.8
2022-11-18T13:51:35.044Z,54.7
2022-11-18T13:56:52.945Z,54.5
2022-11-18T14:02:11.757Z,55.1
2022-11-18T14:07:30.307Z,54.9
2022-11-18T14:12:48.869Z,54.8
2022-11-18T14:18:07.340Z,55.5
2022-11-18T14:23:25.870Z,55.8
2022-11-18T14:28:44.591Z,55.8
2022-11-18T14:34:03.075Z,54.8
2022-11-18T14:39:32.522Z,55.6
2022-11-18T14:44:51.068Z,55.4
2022-11-18T14:50:09.826Z,54.5
2022-11-18T14:55:28.432Z,55.3
2022-11-18T15:00:47.569Z,55.3
2022-11-18T15:06:06.073Z,55.4
2022-11-18T15:11:24.883Z,55.2
2022-11-18T15:16:43.354Z,55.1
2022-11-18T15:22:01.822Z,55.2
2022-11-18T15:27:20.349Z,55.6
2022-11-18T15:32:38.804Z,54.7
2022-11-18T15:37:56.829Z,54.9
2022-11-18T15:43:15.256Z,55.1
2022-11-18T15:48:33.747Z,55
2022-11-18T15:53:52.496Z,55.6
2022-11-18T15:59:11.310Z,55.3
2022-11-18T16:04:30.060Z,55.5
2022-11-18T16:09:48.818Z,54.7
2022-11-18T16:15:07.474Z,55.3
2022-11-18T16:20:26.209Z,55.1
2022-11-18T16:25:44.988Z,55.7
2022-11-18T16:31:03.237Z,56.1
2022-11-18T16:36:21.984Z,56
2022-11-18T16:41:40.749Z,56.3
2022-11-18T16:46:59.388Z,55.9
2022-11-18T16:52:17.869Z,55.6
2022-11-18T16:57:36.366Z,55.7
2022-11-18T17:02:55.169Z,55.7
2022-11-18T17:08:13.652Z,55.5
2022-11-18T17:13:32.123Z,55.6
2022-11-18T17:18:50.689Z,55.8
2022-11-18T17:24:09.435Z,55.9
2022-11-18T17:29:27.634Z,55.4
2022-11-18T17:34:45.892Z,55.8
2022-11-18T17:40:04.645Z,55.6
2022-11-18T17:45:23.130Z,55.7
2022-11-18T17:50:41.714Z,54.5
2022-11-18T17:56:04.588Z,55.4
2022-11-18T18:01:23.420Z,55.1
2022-11-18T18:06:42.324Z,55.1
2022-11-18T18:12:01.035Z,56.1
2022-11-18T18:17:04.168Z,55
2022-11-18T18:22:22.687Z,55.5
2022-11-18T18:27:41.135Z,54.4
2022-11-18T18:32:59.625Z,55.4
2022-11-18T18:38:17.876Z,55.6
2022-11-18T18:43:36.329Z,54.7
2022-11-18T18:48:54.255Z,54.5
2022-11-18T18:54:12.851Z,55.1
2022-11-18T18:59:30.745Z,54.6
2022-11-18T19:04:49.236Z,53.8
2022-11-18T19:10:08.272Z,54.7
2022-11-18T19:15:27.155Z,55
2022-11-18T19:20:45.665Z,55
2022-11-18T19:26:09.797Z,54.8
2022-11-18T19:31:28.525Z,55.3
2022-11-18T19:36:47.300Z,55.1
2022-11-18T19:42:05.808Z,54.7
2022-11-18T19:47:23.708Z,54.7
2022-11-18T19:52:41.637Z,54.8
2022-11-18T19:58:00.153Z,55.3
2022-11-18T20:03:18.579Z,55.3
2022-11-18T20:08:21.442Z,55.7
2022-11-18T20:13:41.309Z,55.6
2022-11-18T20:19:00.074Z,55.5
2022-11-18T20:24:18.291Z,55.6
2022-11-18T20:29:36.830Z,54.8
2022-11-18T20:34:55.703Z,55.6
2022-11-18T20:39:58.869Z,54.8
2022-11-18T20:45:17.790Z,55
2022-11-18T20:50:36.551Z,54.6
2022-11-18T20:55:55.308Z,54.9
2022-11-18T21:01:02.564Z,55.5
2022-11-18T21:06:20.799Z,55.4
2022-11-18T21:11:39.567Z,55
2022-11-18T21:16:44.242Z,55.2
2022-11-18T21:22:03.011Z,56
2022-11-18T21:27:21.797Z,55.1
2022-11-18T21:32:40.287Z,55.8
2022-11-18T21:37:59.052Z,55.6
2022-11-18T21:43:17.816Z,55.1
2022-11-18T21:48:36.610Z,55.7
2022-11-18T21:53:54.832Z,55.7
2022-11-18T21:59:13.322Z,55.8
2022-11-18T22:04:31.883Z,55.2
2022-11-18T22:09:50.332Z,55.6
2022-11-18T22:15:08.829Z,56
2022-11-18T22:20:27.224Z,55.4
2022-11-18T22:25:45.415Z,55.9
2022-11-18T22:31:04.167Z,56.1
2022-11-18T22:36:22.426Z,55.9
2022-11-18T22:41:40.884Z,55.6
2022-11-18T22:47:00.389Z,56.3
2022-11-18T22:52:18.619Z,55.7
2022-11-18T22:57:37.089Z,56.5
2022-11-18T23:02:55.825Z,55.7
2022-11-18T23:08:14.780Z,56
2022-11-18T23:13:32.947Z,56.3
2022-11-18T23:18:51.714Z,56.4
2022-11-18T23:24:10.233Z,56.1
2022-11-18T23:29:28.410Z,55.6
2022-11-18T23:34:46.619Z,56
2022-11-18T23:40:05.293Z,56.3
2022-11-18T23:45:23.465Z,55.6
2022-11-18T23:50:41.669Z,56.4
2022-11-18T23:55:59.912Z,56.4
